AVA158 SEQM-SKRG
Flight info
| Callsign | AVA158 |
|---|---|
| Flight time | 1h 2m |
| Altitude | 38000 |
| Route | ARNOK3A ARNOK UP778 BOKAN UQ113 ULQ W3 ISVON ISVON4A |
| Aircraft | A320/M-SDE3FGHIRWY/LB1 |
Departure
| Time | 2026-05-06 02:38 |
|---|---|
| Airport | Mariscal Sucre International Airport (SEQM) |
Arrival
| Time | 2026-05-06 03:41 |
|---|---|
| Airport | Jose Maria Córdova International Airport (SKRG) |
| Time | Latitude | Longitude | Altitude | Speed | Heading |
|---|---|---|---|---|---|
| 2026-05-06 02:12 | -0.12258 | -78.35939 | 7985 ft | 0 kts | 267° |
| 2026-05-06 02:28 | -0.12257 | -78.35926 | 7984 ft | 3 kts | 266° |
| 2026-05-06 02:28 | -0.12255 | -78.35901 | 7984 ft | 3 kts | 262° |
| 2026-05-06 02:28 | -0.12251 | -78.35878 | 7984 ft | 3 kts | 253° |
| 2026-05-06 02:29 | -0.12242 | -78.35857 | 7984 ft | 3 kts | 225° |
| 2026-05-06 02:29 | -0.12228 | -78.35848 | 7984 ft | 0 kts | 178° |
| 2026-05-06 02:31 | -0.12229 | -78.35848 | 7984 ft | 2 kts | 178° |
| 2026-05-06 02:31 | -0.12262 | -78.35847 | 7984 ft | 7 kts | 178° |
| 2026-05-06 02:32 | -0.12309 | -78.35846 | 7984 ft | 0 kts | 178° |
| 2026-05-06 02:32 | -0.12348 | -78.35841 | 7984 ft | 11 kts | 160° |
| 2026-05-06 02:32 | -0.12363 | -78.35777 | 7984 ft | 10 kts | 88° |
| 2026-05-06 02:33 | -0.12361 | -78.35706 | 7985 ft | 10 kts | 88° |
| 2026-05-06 02:33 | -0.12359 | -78.35657 | 7988 ft | 11 kts | 88° |
| 2026-05-06 02:33 | -0.12502 | -78.35608 | 7985 ft | 17 kts | 177° |
| 2026-05-06 02:34 | -0.12645 | -78.35601 | 7986 ft | 23 kts | 177° |
| 2026-05-06 02:34 | -0.12807 | -78.35595 | 7986 ft | 23 kts | 177° |
| 2026-05-06 02:34 | -0.12972 | -78.35588 | 7987 ft | 24 kts | 178° |
| 2026-05-06 02:34 | -0.13137 | -78.35581 | 7988 ft | 24 kts | 178° |
| 2026-05-06 02:35 | -0.13305 | -78.35574 | 7985 ft | 24 kts | 178° |
| 2026-05-06 02:35 | -0.13478 | -78.35567 | 7985 ft | 25 kts | 177° |
| 2026-05-06 02:35 | -0.13653 | -78.35559 | 7985 ft | 25 kts | 177° |
| 2026-05-06 02:35 | -0.13830 | -78.35552 | 7984 ft | 26 kts | 177° |
| 2026-05-06 02:36 | -0.14009 | -78.35543 | 7984 ft | 26 kts | 178° |
| 2026-05-06 02:36 | -0.14182 | -78.35536 | 7987 ft | 14 kts | 177° |
| 2026-05-06 02:36 | -0.14255 | -78.35483 | 7984 ft | 14 kts | 103° |
| 2026-05-06 02:36 | -0.14253 | -78.35381 | 7983 ft | 15 kts | 85° |
| 2026-05-06 02:37 | -0.14169 | -78.35366 | 7986 ft | 14 kts | 356° |
| 2026-05-06 02:37 | -0.13991 | -78.35373 | 7990 ft | 53 kts | 357° |
| 2026-05-06 02:37 | -0.13390 | -78.35399 | 7991 ft | 117 kts | 357° |
| 2026-05-06 02:37 | -0.12391 | -78.35441 | 7988 ft | 169 kts | 358° |
| 2026-05-06 02:38 | -0.11102 | -78.35490 | 8276 ft | 190 kts | 358° |
| 2026-05-06 02:38 | -0.09774 | -78.35549 | 8993 ft | 192 kts | 357° |
| 2026-05-06 02:38 | -0.08447 | -78.35794 | 9642 ft | 197 kts | 345° |
| 2026-05-06 02:38 | -0.07065 | -78.36233 | 9774 ft | 219 kts | 342° |
| 2026-05-06 02:39 | -0.05576 | -78.36761 | 9909 ft | 240 kts | 341° |
| 2026-05-06 02:39 | -0.03924 | -78.37350 | 10045 ft | 264 kts | 341° |
| 2026-05-06 02:39 | -0.02119 | -78.37981 | 10257 ft | 287 kts | 341° |
| 2026-05-06 02:39 | -0.00177 | -78.38646 | 10656 ft | 301 kts | 341° |
| 2026-05-06 02:40 | 0.01821 | -78.39318 | 11322 ft | 305 kts | 342° |
| 2026-05-06 02:40 | 0.03856 | -78.39994 | 11987 ft | 310 kts | 342° |
| 2026-05-06 02:40 | 0.05922 | -78.40674 | 12691 ft | 314 kts | 343° |
| 2026-05-06 02:40 | 0.08013 | -78.41356 | 13383 ft | 317 kts | 343° |
| 2026-05-06 02:41 | 0.10093 | -78.42034 | 14060 ft | 319 kts | 343° |
| 2026-05-06 02:41 | 0.12213 | -78.42724 | 14726 ft | 321 kts | 343° |
| 2026-05-06 02:41 | 0.14401 | -78.43158 | 15368 ft | 320 kts | 5° |
| 2026-05-06 02:41 | 0.16523 | -78.42586 | 15981 ft | 318 kts | 30° |
| 2026-05-06 02:42 | 0.18333 | -78.41329 | 16586 ft | 318 kts | 43° |
| 2026-05-06 02:42 | 0.19919 | -78.39784 | 17202 ft | 318 kts | 48° |
| 2026-05-06 02:42 | 0.21413 | -78.38149 | 17780 ft | 320 kts | 49° |
| 2026-05-06 02:42 | 0.22905 | -78.36515 | 18268 ft | 325 kts | 48° |
| 2026-05-06 02:43 | 0.24483 | -78.34862 | 18611 ft | 336 kts | 46° |
| 2026-05-06 02:43 | 0.26179 | -78.33172 | 18742 ft | 353 kts | 45° |
| 2026-05-06 02:43 | 0.27989 | -78.31440 | 18873 ft | 368 kts | 44° |
| 2026-05-06 02:43 | 0.29897 | -78.29658 | 19019 ft | 382 kts | 44° |
| 2026-05-06 02:44 | 0.31878 | -78.27832 | 19403 ft | 389 kts | 43° |
| 2026-05-06 02:44 | 0.33878 | -78.25996 | 19863 ft | 393 kts | 43° |
| 2026-05-06 02:44 | 0.35897 | -78.24138 | 20349 ft | 396 kts | 43° |
| 2026-05-06 02:44 | 0.37929 | -78.22261 | 20827 ft | 399 kts | 43° |
| 2026-05-06 02:45 | 0.39969 | -78.20368 | 21278 ft | 402 kts | 44° |
| 2026-05-06 02:45 | 0.42018 | -78.18455 | 21720 ft | 405 kts | 44° |
| 2026-05-06 02:45 | 0.44084 | -78.16523 | 22154 ft | 408 kts | 44° |
| 2026-05-06 02:45 | 0.46159 | -78.14583 | 22575 ft | 411 kts | 44° |
| 2026-05-06 02:46 | 0.48257 | -78.12627 | 22983 ft | 413 kts | 44° |
| 2026-05-06 02:46 | 0.50416 | -78.10719 | 23368 ft | 416 kts | 38° |
| 2026-05-06 02:46 | 0.52743 | -78.08983 | 23716 ft | 419 kts | 38° |
| 2026-05-06 02:46 | 0.55092 | -78.07239 | 24067 ft | 421 kts | 37° |
| 2026-05-06 02:47 | 0.57417 | -78.05514 | 24414 ft | 423 kts | 37° |
| 2026-05-06 02:47 | 0.59785 | -78.03753 | 24747 ft | 425 kts | 38° |
| 2026-05-06 02:47 | 0.62162 | -78.01982 | 25068 ft | 428 kts | 38° |
| 2026-05-06 02:47 | 0.64552 | -78.00202 | 25396 ft | 430 kts | 38° |
| 2026-05-06 02:48 | 0.66957 | -77.98412 | 25722 ft | 432 kts | 38° |
| 2026-05-06 02:48 | 0.69375 | -77.96615 | 26030 ft | 434 kts | 38° |
| 2026-05-06 02:48 | 0.71806 | -77.94807 | 26331 ft | 436 kts | 38° |
| 2026-05-06 02:48 | 0.74245 | -77.92988 | 26631 ft | 438 kts | 38° |
| 2026-05-06 02:49 | 0.75870 | -77.91777 | 26831 ft | 439 kts | 38° |
| 2026-05-06 02:49 | 0.78321 | -77.89949 | 27130 ft | 441 kts | 38° |
| 2026-05-06 02:49 | 0.80825 | -77.88159 | 27427 ft | 443 kts | 33° |
| 2026-05-06 02:49 | 0.83545 | -77.86692 | 27709 ft | 446 kts | 28° |
| 2026-05-06 02:50 | 0.86323 | -77.85297 | 27982 ft | 448 kts | 28° |
| 2026-05-06 02:50 | 0.89112 | -77.83895 | 28246 ft | 449 kts | 28° |
| 2026-05-06 02:50 | 0.91907 | -77.82490 | 28499 ft | 451 kts | 28° |
| 2026-05-06 02:50 | 0.94720 | -77.81076 | 28753 ft | 452 kts | 28° |
| 2026-05-06 02:51 | 0.97534 | -77.79659 | 28979 ft | 454 kts | 28° |
| 2026-05-06 02:51 | 1.00366 | -77.78232 | 29198 ft | 456 kts | 28° |
| 2026-05-06 02:51 | 1.03206 | -77.76802 | 29448 ft | 457 kts | 28° |
| 2026-05-06 02:51 | 1.06056 | -77.75369 | 29676 ft | 459 kts | 28° |
| 2026-05-06 02:52 | 1.08911 | -77.73933 | 29875 ft | 460 kts | 28° |
| 2026-05-06 02:52 | 1.11780 | -77.72491 | 30072 ft | 461 kts | 28° |
| 2026-05-06 02:52 | 1.14650 | -77.71046 | 30270 ft | 462 kts | 28° |
| 2026-05-06 02:52 | 1.17520 | -77.69600 | 30547 ft | 462 kts | 28° |
| 2026-05-06 02:53 | 1.20387 | -77.68155 | 30833 ft | 461 kts | 28° |
| 2026-05-06 02:53 | 1.23249 | -77.66710 | 31106 ft | 461 kts | 28° |
| 2026-05-06 02:53 | 1.26110 | -77.65264 | 31384 ft | 460 kts | 28° |
| 2026-05-06 02:53 | 1.28929 | -77.63843 | 31657 ft | 460 kts | 28° |
| 2026-05-06 02:54 | 1.31788 | -77.62406 | 31918 ft | 459 kts | 28° |
| 2026-05-06 02:54 | 1.34644 | -77.60969 | 32183 ft | 459 kts | 28° |
| 2026-05-06 02:54 | 1.37497 | -77.59533 | 32452 ft | 459 kts | 28° |
| 2026-05-06 02:54 | 1.40344 | -77.58098 | 32714 ft | 459 kts | 28° |
| 2026-05-06 02:55 | 1.43200 | -77.56659 | 32969 ft | 459 kts | 28° |
| 2026-05-06 02:55 | 1.46049 | -77.55223 | 33228 ft | 458 kts | 28° |
| 2026-05-06 02:55 | 1.48898 | -77.53787 | 33481 ft | 458 kts | 28° |
| 2026-05-06 02:55 | 1.51742 | -77.52353 | 33727 ft | 458 kts | 28° |
| 2026-05-06 02:56 | 1.54585 | -77.50919 | 33972 ft | 458 kts | 28° |
| 2026-05-06 02:56 | 1.57422 | -77.49489 | 34227 ft | 458 kts | 28° |
| 2026-05-06 02:56 | 1.60238 | -77.48068 | 34448 ft | 458 kts | 28° |
| 2026-05-06 02:56 | 1.63085 | -77.46632 | 34681 ft | 458 kts | 28° |
| 2026-05-06 02:57 | 1.65937 | -77.45196 | 34900 ft | 459 kts | 28° |
| 2026-05-06 02:57 | 1.68785 | -77.43764 | 35110 ft | 458 kts | 27° |
| 2026-05-06 02:57 | 1.71635 | -77.42330 | 35313 ft | 459 kts | 27° |
| 2026-05-06 02:57 | 1.74484 | -77.40894 | 35522 ft | 459 kts | 27° |
| 2026-05-06 02:58 | 1.77337 | -77.39454 | 35708 ft | 459 kts | 27° |
| 2026-05-06 02:58 | 1.80193 | -77.38014 | 35889 ft | 459 kts | 27° |
| 2026-05-06 02:58 | 1.83052 | -77.36574 | 36070 ft | 459 kts | 27° |
| 2026-05-06 02:58 | 1.85911 | -77.35132 | 36245 ft | 459 kts | 27° |
| 2026-05-06 02:59 | 1.88727 | -77.33713 | 36425 ft | 459 kts | 27° |
| 2026-05-06 02:59 | 1.91624 | -77.32254 | 36580 ft | 460 kts | 27° |
| 2026-05-06 02:59 | 1.94447 | -77.30830 | 36782 ft | 459 kts | 27° |
| 2026-05-06 02:59 | 1.97294 | -77.29395 | 37030 ft | 457 kts | 27° |
| 2026-05-06 03:00 | 2.00138 | -77.27960 | 37270 ft | 455 kts | 27° |
| 2026-05-06 03:00 | 2.02964 | -77.26533 | 37488 ft | 454 kts | 27° |
| 2026-05-06 03:00 | 2.05780 | -77.25112 | 37667 ft | 453 kts | 27° |
| 2026-05-06 03:00 | 2.08594 | -77.23692 | 37824 ft | 453 kts | 27° |
| 2026-05-06 03:01 | 2.11415 | -77.22273 | 37967 ft | 453 kts | 27° |
| 2026-05-06 03:01 | 2.14230 | -77.20858 | 38132 ft | 452 kts | 27° |
| 2026-05-06 03:01 | 2.17007 | -77.19458 | 38183 ft | 454 kts | 26° |
| 2026-05-06 03:02 | 2.22657 | -77.16599 | 38184 ft | 455 kts | 27° |
| 2026-05-06 03:02 | 2.28318 | -77.13746 | 38182 ft | 455 kts | 27° |
| 2026-05-06 03:03 | 2.33969 | -77.10896 | 38183 ft | 454 kts | 27° |
| 2026-05-06 03:03 | 2.39583 | -77.08066 | 38185 ft | 454 kts | 27° |
| 2026-05-06 03:04 | 2.45234 | -77.05215 | 38188 ft | 455 kts | 27° |
| 2026-05-06 03:04 | 2.50892 | -77.02362 | 38190 ft | 454 kts | 27° |
| 2026-05-06 03:05 | 2.56536 | -76.99513 | 38186 ft | 454 kts | 27° |
| 2026-05-06 03:05 | 2.62180 | -76.96665 | 38183 ft | 454 kts | 27° |
| 2026-05-06 03:06 | 2.67784 | -76.93835 | 38180 ft | 454 kts | 27° |
| 2026-05-06 03:06 | 2.73430 | -76.90986 | 38179 ft | 454 kts | 27° |
| 2026-05-06 03:07 | 2.79071 | -76.88142 | 38172 ft | 453 kts | 27° |
| 2026-05-06 03:07 | 2.84698 | -76.85300 | 38166 ft | 453 kts | 27° |
| 2026-05-06 03:08 | 2.90324 | -76.82458 | 38162 ft | 453 kts | 27° |
| 2026-05-06 03:08 | 2.95912 | -76.79631 | 38150 ft | 453 kts | 27° |
| 2026-05-06 03:09 | 3.01544 | -76.76788 | 38135 ft | 453 kts | 27° |
| 2026-05-06 03:09 | 3.07160 | -76.73947 | 38123 ft | 452 kts | 27° |
| 2026-05-06 03:10 | 3.12775 | -76.71112 | 38112 ft | 452 kts | 27° |
| 2026-05-06 03:10 | 3.18382 | -76.68276 | 38103 ft | 452 kts | 27° |
| 2026-05-06 03:11 | 3.24004 | -76.65443 | 38093 ft | 452 kts | 27° |
| 2026-05-06 03:11 | 3.29622 | -76.62614 | 38084 ft | 452 kts | 27° |
| 2026-05-06 03:12 | 3.35201 | -76.59790 | 38081 ft | 452 kts | 27° |
| 2026-05-06 03:12 | 3.40856 | -76.56927 | 38073 ft | 453 kts | 27° |
| 2026-05-06 03:13 | 3.46446 | -76.54108 | 38069 ft | 452 kts | 27° |
| 2026-05-06 03:13 | 3.52070 | -76.51266 | 38069 ft | 452 kts | 27° |
| 2026-05-06 03:14 | 3.57683 | -76.48418 | 38068 ft | 453 kts | 27° |
| 2026-05-06 03:14 | 3.63303 | -76.45572 | 38071 ft | 452 kts | 26° |
| 2026-05-06 03:15 | 3.68915 | -76.42740 | 38070 ft | 452 kts | 27° |
| 2026-05-06 03:15 | 3.74530 | -76.39899 | 38074 ft | 452 kts | 27° |
| 2026-05-06 03:16 | 3.80145 | -76.37054 | 38072 ft | 452 kts | 27° |
| 2026-05-06 03:16 | 3.85725 | -76.34225 | 38065 ft | 452 kts | 27° |
| 2026-05-06 03:17 | 3.91345 | -76.31384 | 38064 ft | 452 kts | 26° |
| 2026-05-06 03:17 | 3.96969 | -76.28548 | 38070 ft | 452 kts | 26° |
| 2026-05-06 03:18 | 4.02581 | -76.25707 | 38073 ft | 452 kts | 27° |
| 2026-05-06 03:18 | 4.08195 | -76.22863 | 38076 ft | 451 kts | 27° |
| 2026-05-06 03:19 | 4.13743 | -76.19905 | 38078 ft | 452 kts | 29° |
| 2026-05-06 03:19 | 4.19159 | -76.16777 | 38082 ft | 452 kts | 30° |
| 2026-05-06 03:20 | 4.27333 | -76.12065 | 38090 ft | 451 kts | 29° |
| 2026-05-06 03:20 | 4.32805 | -76.08984 | 38088 ft | 451 kts | 29° |
| 2026-05-06 03:21 | 4.38287 | -76.05926 | 38094 ft | 451 kts | 29° |
| 2026-05-06 03:21 | 4.43768 | -76.02860 | 38095 ft | 451 kts | 29° |
| 2026-05-06 03:22 | 4.49242 | -75.99789 | 38101 ft | 451 kts | 29° |
| 2026-05-06 03:22 | 4.54725 | -75.96716 | 38094 ft | 451 kts | 29° |
| 2026-05-06 03:23 | 4.60208 | -75.93655 | 38097 ft | 451 kts | 29° |
| 2026-05-06 03:23 | 4.65696 | -75.90592 | 38093 ft | 451 kts | 29° |
| 2026-05-06 03:24 | 4.71144 | -75.87546 | 38030 ft | 452 kts | 29° |
| 2026-05-06 03:24 | 4.73896 | -75.86005 | 37344 ft | 454 kts | 29° |
| 2026-05-06 03:24 | 4.76652 | -75.84463 | 36719 ft | 451 kts | 28° |
| 2026-05-06 03:25 | 4.79504 | -75.83142 | 35897 ft | 453 kts | 20° |
| 2026-05-06 03:25 | 4.82489 | -75.82101 | 35040 ft | 455 kts | 19° |
| 2026-05-06 03:25 | 4.85494 | -75.81056 | 34182 ft | 456 kts | 20° |
| 2026-05-06 03:25 | 4.88502 | -75.80006 | 33223 ft | 460 kts | 20° |
| 2026-05-06 03:26 | 4.91539 | -75.78943 | 32191 ft | 464 kts | 20° |
| 2026-05-06 03:26 | 4.94598 | -75.77871 | 31169 ft | 467 kts | 20° |
| 2026-05-06 03:26 | 4.97672 | -75.76798 | 30055 ft | 471 kts | 20° |
| 2026-05-06 03:26 | 5.00776 | -75.75715 | 29148 ft | 470 kts | 20° |
| 2026-05-06 03:27 | 5.03830 | -75.74650 | 28545 ft | 462 kts | 20° |
| 2026-05-06 03:27 | 5.06850 | -75.73594 | 27803 ft | 458 kts | 20° |
| 2026-05-06 03:27 | 5.09807 | -75.72557 | 27043 ft | 455 kts | 20° |
| 2026-05-06 03:27 | 5.12780 | -75.71515 | 26365 ft | 450 kts | 20° |
| 2026-05-06 03:28 | 5.15730 | -75.70487 | 25755 ft | 444 kts | 20° |
| 2026-05-06 03:28 | 5.18634 | -75.69481 | 25128 ft | 439 kts | 20° |
| 2026-05-06 03:28 | 5.21512 | -75.68482 | 24455 ft | 436 kts | 20° |
| 2026-05-06 03:28 | 5.24364 | -75.67490 | 23793 ft | 432 kts | 20° |
| 2026-05-06 03:29 | 5.27198 | -75.66504 | 23188 ft | 428 kts | 20° |
| 2026-05-06 03:29 | 5.30000 | -75.65528 | 22583 ft | 424 kts | 20° |
| 2026-05-06 03:29 | 5.32746 | -75.64571 | 22001 ft | 421 kts | 20° |
| 2026-05-06 03:29 | 5.35502 | -75.63609 | 21451 ft | 416 kts | 20° |
| 2026-05-06 03:30 | 5.38231 | -75.62656 | 20904 ft | 413 kts | 20° |
| 2026-05-06 03:30 | 5.40895 | -75.61629 | 20381 ft | 408 kts | 27° |
| 2026-05-06 03:30 | 5.43394 | -75.60324 | 19884 ft | 403 kts | 29° |
| 2026-05-06 03:30 | 5.45863 | -75.59015 | 19386 ft | 399 kts | 29° |
| 2026-05-06 03:31 | 5.48313 | -75.57718 | 18889 ft | 396 kts | 29° |
| 2026-05-06 03:31 | 5.50735 | -75.56439 | 18393 ft | 391 kts | 29° |
| 2026-05-06 03:31 | 5.53130 | -75.55171 | 17902 ft | 387 kts | 30° |
| 2026-05-06 03:31 | 5.55476 | -75.53925 | 17769 ft | 374 kts | 30° |
| 2026-05-06 03:32 | 5.57739 | -75.52725 | 17636 ft | 361 kts | 30° |
| 2026-05-06 03:32 | 5.59932 | -75.51565 | 17517 ft | 349 kts | 30° |
| 2026-05-06 03:32 | 5.62029 | -75.50457 | 17196 ft | 333 kts | 30° |
| 2026-05-06 03:32 | 5.64057 | -75.49384 | 16648 ft | 328 kts | 30° |
| 2026-05-06 03:33 | 5.66038 | -75.48334 | 16226 ft | 328 kts | 30° |
| 2026-05-06 03:33 | 5.68063 | -75.47259 | 15879 ft | 326 kts | 30° |
| 2026-05-06 03:33 | 5.70059 | -75.46199 | 15559 ft | 324 kts | 30° |
| 2026-05-06 03:33 | 5.72043 | -75.45144 | 15223 ft | 321 kts | 30° |
| 2026-05-06 03:34 | 5.73988 | -75.44112 | 15093 ft | 311 kts | 30° |
| 2026-05-06 03:34 | 5.75876 | -75.43113 | 14966 ft | 302 kts | 30° |
| 2026-05-06 03:34 | 5.77810 | -75.42370 | 14835 ft | 296 kts | 13° |
| 2026-05-06 03:34 | 5.79835 | -75.42211 | 14711 ft | 289 kts | 2° |
| 2026-05-06 03:35 | 5.81833 | -75.42215 | 14520 ft | 284 kts | 2° |
| 2026-05-06 03:35 | 5.83806 | -75.42216 | 14124 ft | 286 kts | 2° |
| 2026-05-06 03:35 | 5.85857 | -75.42214 | 13344 ft | 303 kts | 2° |
| 2026-05-06 03:35 | 5.87969 | -75.42213 | 13011 ft | 300 kts | 2° |
| 2026-05-06 03:36 | 5.90055 | -75.42216 | 12345 ft | 302 kts | 2° |
| 2026-05-06 03:36 | 5.92148 | -75.42221 | 11546 ft | 306 kts | 2° |
| 2026-05-06 03:36 | 5.94275 | -75.42230 | 10882 ft | 303 kts | 1° |
| 2026-05-06 03:36 | 5.96337 | -75.42208 | 10552 ft | 288 kts | 2° |
| 2026-05-06 03:37 | 5.98301 | -75.42191 | 10197 ft | 276 kts | 0° |
| 2026-05-06 03:37 | 6.00147 | -75.42203 | 9846 ft | 256 kts | 1° |
| 2026-05-06 03:37 | 6.01302 | -75.42213 | 9625 ft | 244 kts | 1° |
| 2026-05-06 03:37 | 6.03488 | -75.42229 | 9236 ft | 223 kts | 0° |
| 2026-05-06 03:38 | 6.04490 | -75.42235 | 9032 ft | 211 kts | 0° |
| 2026-05-06 03:38 | 6.06318 | -75.42247 | 8685 ft | 186 kts | 1° |
| 2026-05-06 03:38 | 6.07563 | -75.42255 | 8430 ft | 171 kts | 360° |
| 2026-05-06 03:38 | 6.08724 | -75.42262 | 8200 ft | 163 kts | 359° |
| 2026-05-06 03:39 | 6.09848 | -75.42269 | 7995 ft | 159 kts | 359° |
| 2026-05-06 03:39 | 6.10580 | -75.42274 | 7853 ft | 158 kts | 359° |
| 2026-05-06 03:39 | 6.11680 | -75.42281 | 7646 ft | 157 kts | 359° |
| 2026-05-06 03:39 | 6.12774 | -75.42288 | 7437 ft | 156 kts | 359° |
| 2026-05-06 03:40 | 6.13851 | -75.42296 | 7234 ft | 156 kts | 360° |
| 2026-05-06 03:40 | 6.14947 | -75.42301 | 7034 ft | 155 kts | 359° |
| 2026-05-06 03:40 | 6.15965 | -75.42310 | 6980 ft | 124 kts | 359° |
| 2026-05-06 03:40 | 6.16539 | -75.42314 | 6992 ft | 54 kts | 359° |
| 2026-05-06 03:41 | 6.16877 | -75.42317 | 7017 ft | 41 kts | 357° |
| 2026-05-06 03:41 | 6.17042 | -75.42374 | 7018 ft | 22 kts | 333° |
| 2026-05-06 03:41 | 6.17140 | -75.42430 | 7017 ft | 11 kts | 328° |
| 2026-05-06 03:41 | 6.17190 | -75.42463 | 7017 ft | 0 kts | 309° |
| 2026-05-06 03:42 | 6.17193 | -75.42484 | 7017 ft | 5 kts | 264° |
| 2026-05-06 03:42 | 6.17191 | -75.42529 | 7017 ft | 6 kts | 269° |
| 2026-05-06 03:42 | 6.17190 | -75.42568 | 7017 ft | 8 kts | 269° |
| 2026-05-06 03:42 | 6.17225 | -75.42620 | 7016 ft | 8 kts | 348° |
| 2026-05-06 03:43 | 6.17230 | -75.42643 | 7019 ft | 6 kts | 249° |
| 2026-05-06 03:43 | 6.17217 | -75.42684 | 7018 ft | 1 kts | 252° |
| 2026-05-06 03:43 | 6.17214 | -75.42693 | 7018 ft | 2 kts | 252° |
| 2026-05-06 03:43 | 6.17214 | -75.42695 | 7020 ft | 0 kts | 252° |